createdAt,value
2022-09-20T00:01:38.413Z,7.90
2022-09-20T00:06:44.115Z,7.40
2022-09-20T00:11:51.214Z,8.40
2022-09-20T00:16:56.980Z,8.40
2022-09-20T00:22:02.848Z,7.90
2022-09-20T00:27:08.646Z,8.10
2022-09-20T00:32:14.479Z,7.90
2022-09-20T00:37:20.235Z,8.90
2022-09-20T00:42:30.986Z,8.80
2022-09-20T00:47:41.951Z,8.80
2022-09-20T00:52:52.829Z,8.50
2022-09-20T00:58:00.017Z,8.80
2022-09-20T01:03:10.625Z,10.50
2022-09-20T01:08:17.186Z,9.00
2022-09-20T01:13:23.059Z,9.50
2022-09-20T01:18:31.950Z,10.20
2022-09-20T01:23:49.169Z,9.90
2022-09-20T01:29:03.201Z,9.20
2022-09-20T01:34:13.264Z,9.30
2022-09-20T01:39:29.755Z,8.40
2022-09-20T01:44:44.721Z,9.50
2022-09-20T01:49:57.415Z,9.70
2022-09-20T01:55:52.069Z,8.80
2022-09-20T02:01:24.914Z,8.20
2022-09-20T02:06:53.946Z,7.80
2022-09-20T02:12:19.536Z,9.40
2022-09-20T02:17:34.654Z,8.90
2022-09-20T02:22:52.083Z,8.20
2022-09-20T02:28:13.090Z,8.00
2022-09-20T02:33:34.802Z,9.40
2022-09-20T02:38:59.172Z,9.10
2022-09-20T02:44:15.340Z,7.90
2022-09-20T02:49:29.548Z,8.30
2022-09-20T02:54:46.009Z,9.20
2022-09-20T02:59:59.502Z,8.60
2022-09-20T03:05:15.950Z,8.30
2022-09-20T03:10:28.121Z,7.60
2022-09-20T03:15:47.261Z,8.00
2022-09-20T03:21:07.217Z,8.40
2022-09-20T03:26:24.484Z,7.80
2022-09-20T03:31:47.531Z,7.20
2022-09-20T03:37:08.895Z,7.30
2022-09-20T03:47:40.592Z,7.30
2022-09-20T03:53:12.782Z,7.00
2022-09-20T03:58:34.435Z,6.80
2022-09-20T04:03:53.323Z,7.30
2022-09-20T04:09:24.269Z,7.40
2022-09-20T04:14:37.143Z,7.10
2022-09-20T04:19:50.949Z,6.30
2022-09-20T04:25:01.177Z,7.10
2022-09-20T04:30:18.360Z,7.00
2022-09-20T04:35:55.252Z,6.30
2022-09-20T04:41:20.700Z,6.10
2022-09-20T04:47:06.064Z,6.60
2022-09-20T04:52:44.744Z,6.40
2022-09-20T04:58:21.730Z,5.60
2022-09-20T05:03:54.173Z,5.40
2022-09-20T05:09:44.661Z,5.40
2022-09-20T05:15:08.218Z,6.20
2022-09-20T05:20:45.903Z,6.00
2022-09-20T05:26:08.183Z,5.20
2022-09-20T05:31:22.175Z,6.30
2022-09-20T05:36:40.633Z,5.60
2022-09-20T05:41:54.879Z,4.90
2022-09-20T05:47:10.300Z,5.80
2022-09-20T05:52:41.971Z,6.00
2022-09-20T05:58:02.998Z,5.50
2022-09-20T06:03:18.854Z,5.50
2022-09-20T06:08:43.531Z,6.00
2022-09-20T06:14:11.710Z,6.30
2022-09-20T06:19:27.405Z,5.20
2022-09-20T06:24:43.087Z,6.10
2022-09-20T06:29:53.283Z,5.90
2022-09-20T06:35:02.589Z,5.20
2022-09-20T06:40:50.022Z,5.30
2022-09-20T06:45:55.900Z,5.80
2022-09-20T06:51:02.688Z,5.30
2022-09-20T06:56:14.482Z,5.90
2022-09-20T07:01:29.616Z,6.10
2022-09-20T07:06:36.427Z,6.20
2022-09-20T07:11:43.190Z,6.00
2022-09-20T07:16:49.203Z,5.90
2022-09-20T07:21:55.309Z,5.30
2022-09-20T07:27:03.491Z,5.60
2022-09-20T07:32:09.622Z,5.50
2022-09-20T07:37:16.564Z,5.90
2022-09-20T07:42:22.322Z,5.30
2022-09-20T07:47:31.951Z,5.90
2022-09-20T07:52:37.821Z,5.10
2022-09-20T07:57:43.621Z,5.20
2022-09-20T08:02:57.254Z,6.00
2022-09-20T08:08:03.333Z,5.70
2022-09-20T08:18:35.519Z,5.50
2022-09-20T08:23:42.989Z,5.30
2022-09-20T08:28:52.261Z,5.20
2022-09-20T08:33:59.201Z,4.60
2022-09-20T08:44:35.697Z,5.40
2022-09-20T08:49:46.141Z,4.80
2022-09-20T08:54:52.757Z,5.00
2022-09-20T08:59:59.796Z,4.90
2022-09-20T09:05:17.120Z,4.50
2022-09-20T09:10:22.776Z,4.90
2022-09-20T09:15:32.698Z,5.90
2022-09-20T09:20:47.246Z,6.00
2022-09-20T09:25:54.649Z,5.70
2022-09-20T09:31:20.647Z,7.30
2022-09-20T09:36:27.462Z,8.00
2022-09-20T09:41:35.733Z,8.40
2022-09-20T09:46:41.555Z,9.40
2022-09-20T09:52:04.022Z,10.00
2022-09-20T09:57:33.754Z,7.70
2022-09-20T10:03:20.934Z,7.90
2022-09-20T10:08:38.097Z,7.90
2022-09-20T10:13:56.814Z,8.40
2022-09-20T10:19:10.283Z,7.10
2022-09-20T10:24:30.805Z,6.30
2022-09-20T10:29:49.918Z,7.80
2022-09-20T10:35:19.927Z,7.90
2022-09-20T10:40:53.191Z,6.40
2022-09-20T10:51:49.041Z,5.30
2022-09-20T10:57:09.050Z,4.90
2022-09-20T11:02:41.616Z,3.80
2022-09-20T11:07:58.299Z,3.40
2022-09-20T11:13:08.615Z,3.60
2022-09-20T11:18:23.001Z,3.80
2022-09-20T11:23:38.138Z,3.60
2022-09-20T11:28:48.975Z,3.90
2022-09-20T11:34:00.562Z,3.20
2022-09-20T11:39:13.575Z,3.40
2022-09-20T11:44:21.855Z,3.40
2022-09-20T11:49:33.965Z,3.70
2022-09-20T11:55:18.925Z,3.40
2022-09-20T12:00:32.437Z,3.30
2022-09-20T12:05:41.599Z,3.40
2022-09-20T12:11:04.121Z,2.70
2022-09-20T12:16:15.787Z,2.60
2022-09-20T12:21:22.546Z,2.70
2022-09-20T12:27:43.174Z,2.30
2022-09-20T12:32:52.412Z,2.20
2022-09-20T12:38:16.929Z,2.50
2022-09-20T12:43:23.843Z,2.60
2022-09-20T12:48:37.781Z,2.90
2022-09-20T12:53:43.719Z,3.20
2022-09-20T12:58:54.603Z,3.00
2022-09-20T13:04:35.813Z,3.00
2022-09-20T13:14:47.283Z,3.20
2022-09-20T13:19:56.400Z,3.70
2022-09-20T13:25:05.201Z,3.60
2022-09-20T13:30:21.060Z,3.20
2022-09-20T13:35:31.810Z,3.30
2022-09-20T13:40:40.113Z,2.10
2022-09-20T13:45:47.215Z,1.60
2022-09-20T13:50:53.935Z,1.60
2022-09-20T13:56:00.758Z,1.80
2022-09-20T14:01:20.389Z,1.60
2022-09-20T14:06:28.256Z,1.40
2022-09-20T14:11:36.956Z,1.30
2022-09-20T14:16:46.644Z,1.40
2022-09-20T14:21:52.818Z,1.20
2022-09-20T14:27:06.806Z,1.10
2022-09-20T14:32:24.954Z,1.00
2022-09-20T14:37:33.405Z,1.10
2022-09-20T14:42:48.971Z,0.90
2022-09-20T14:48:01.443Z,1.30
2022-09-20T14:53:23.385Z,1.40
2022-09-20T14:58:29.239Z,1.00
2022-09-20T15:03:38.936Z,0.90
2022-09-20T15:08:46.773Z,1.00
2022-09-20T15:13:52.818Z,0.80
2022-09-20T15:18:59.193Z,0.80
2022-09-20T15:24:05.292Z,1.30
2022-09-20T15:29:16.740Z,3.00
2022-09-20T15:34:22.945Z,2.70
2022-09-20T15:39:28.632Z,21.50
2022-09-20T15:44:34.481Z,5.70
2022-09-20T15:49:40.328Z,12.60
2022-09-20T15:54:46.131Z,37.60
2022-09-20T15:59:52.126Z,31.10
2022-09-20T16:04:59.538Z,15.00
2022-09-20T16:10:05.932Z,16.10
2022-09-20T16:15:12.895Z,16.20
2022-09-20T16:20:18.629Z,15.50
2022-09-20T16:25:24.350Z,8.30
2022-09-20T16:30:30.246Z,5.80
2022-09-20T16:35:36.024Z,16.70
2022-09-20T16:40:51.521Z,11.70
2022-09-20T16:46:03.586Z,10.00
2022-09-20T16:51:09.724Z,7.50
2022-09-20T16:56:23.262Z,4.10
2022-09-20T17:01:29.848Z,45.70
2022-09-20T17:06:37.181Z,21.70
2022-09-20T17:11:45.758Z,19.90
2022-09-20T17:16:51.579Z,21.80
2022-09-20T17:21:57.378Z,54.40
2022-09-20T17:27:04.101Z,35.20
2022-09-20T17:32:10.113Z,19.10
2022-09-20T17:37:16.245Z,19.30
2022-09-20T17:42:22.172Z,18.10
2022-09-20T17:47:27.902Z,26.70
2022-09-20T17:52:33.632Z,26.40
2022-09-20T17:57:39.413Z,20.60
2022-09-20T18:02:45.126Z,17.20
2022-09-20T18:07:53.075Z,15.50
2022-09-20T18:12:58.987Z,9.50
2022-09-20T18:18:05.114Z,11.30
2022-09-20T18:23:11.217Z,42.80
2022-09-20T18:28:18.054Z,49.60
2022-09-20T18:33:24.942Z,45.20
2022-09-20T18:38:31.202Z,57.20
2022-09-20T18:43:37.012Z,37.80
2022-09-20T18:48:44.057Z,26.10
2022-09-20T18:53:50.105Z,13.80
2022-09-20T18:58:58.070Z,8.00
2022-09-20T19:04:13.707Z,6.60
2022-09-20T19:09:29.423Z,7.50
2022-09-20T19:14:54.632Z,5.50
2022-09-20T19:20:12.856Z,5.50
2022-09-20T19:25:25.790Z,4.80
2022-09-20T19:30:32.907Z,4.80
2022-09-20T19:35:43.387Z,5.20
2022-09-20T19:41:02.021Z,5.70
2022-09-20T19:46:20.959Z,5.60
2022-09-20T19:51:29.187Z,5.00
2022-09-20T19:56:47.252Z,5.10
2022-09-20T20:01:54.014Z,5.30
2022-09-20T20:07:08.710Z,5.30
2022-09-20T20:12:21.524Z,4.90
2022-09-20T20:17:44.216Z,6.10
2022-09-20T20:23:29.022Z,6.50
2022-09-20T20:28:35.140Z,6.60
2022-09-20T20:33:41.446Z,5.90
2022-09-20T20:38:50.390Z,7.10
2022-09-20T20:43:57.259Z,7.60
2022-09-20T20:49:03.459Z,5.80
2022-09-20T20:54:10.396Z,5.60
2022-09-20T20:59:17.231Z,5.10
2022-09-20T21:04:24.977Z,5.70
2022-09-20T21:09:31.978Z,5.80
2022-09-20T21:14:38.160Z,6.10
2022-09-20T21:19:44.082Z,5.60
2022-09-20T21:24:50.412Z,5.80
2022-09-20T21:29:56.602Z,6.40
2022-09-20T21:35:02.314Z,5.90
2022-09-20T21:40:10.299Z,5.90
2022-09-20T21:45:16.244Z,5.70
2022-09-20T21:50:22.798Z,5.30
2022-09-20T21:55:28.491Z,6.10
2022-09-20T22:00:35.818Z,6.90
2022-09-20T22:05:49.272Z,6.30
2022-09-20T22:10:58.408Z,5.50
2022-09-20T22:16:10.121Z,6.20
2022-09-20T22:21:17.667Z,6.30
2022-09-20T22:26:24.163Z,7.70
2022-09-20T22:31:46.748Z,6.60
2022-09-20T22:36:53.885Z,6.60
2022-09-20T22:41:59.919Z,6.80
2022-09-20T22:47:06.605Z,6.90
2022-09-20T22:52:12.509Z,7.80
2022-09-20T22:57:18.245Z,6.30
2022-09-20T23:02:23.966Z,6.10
2022-09-20T23:07:29.811Z,6.20
2022-09-20T23:12:35.612Z,6.60
2022-09-20T23:17:43.385Z,7.40
2022-09-20T23:22:49.127Z,6.90
2022-09-20T23:27:55.768Z,6.90
2022-09-20T23:33:01.702Z,6.80
2022-09-20T23:38:08.037Z,6.90
2022-09-20T23:43:13.687Z,7.40
2022-09-20T23:48:19.370Z,6.70
2022-09-20T23:53:26.212Z,7.30
2022-09-20T23:58:31.966Z,7.30
